createdAt,value
2018-04-19T00:01:56.692Z,13.40
2018-04-19T00:04:24.158Z,14.87
2018-04-19T00:06:51.669Z,14.80
2018-04-19T00:09:19.909Z,13.50
2018-04-19T00:11:47.458Z,13.07
2018-04-19T00:14:14.903Z,15.40
2018-04-19T00:16:42.360Z,13.07
2018-04-19T00:19:09.855Z,14.00
2018-04-19T00:21:37.326Z,13.75
2018-04-19T00:24:04.821Z,15.88
2018-04-19T00:26:32.327Z,14.80
2018-04-19T00:28:59.813Z,14.25
2018-04-19T00:31:28.065Z,14.87
2018-04-19T00:33:55.583Z,14.20
2018-04-19T00:36:23.052Z,13.90
2018-04-19T00:38:50.562Z,16.15
2018-04-19T00:41:18.050Z,13.77
2018-04-19T00:43:45.552Z,15.32
2018-04-19T00:46:13.041Z,14.95
2018-04-19T00:48:40.529Z,14.87
2018-04-19T00:51:08.092Z,14.10
2018-04-19T00:53:35.585Z,14.80
2018-04-19T00:56:03.073Z,14.55
2018-04-19T00:58:30.553Z,13.80
2018-04-19T01:00:58.041Z,15.13
2018-04-19T01:03:25.546Z,14.13
2018-04-19T01:05:53.025Z,13.07
2018-04-19T01:08:21.254Z,14.07
2018-04-19T01:10:48.749Z,15.38
2018-04-19T01:13:16.204Z,14.80
2018-04-19T01:15:44.480Z,14.73
2018-04-19T01:18:11.955Z,15.10
2018-04-19T01:20:39.456Z,15.70
2018-04-19T01:23:06.917Z,13.90
2018-04-19T01:25:34.400Z,15.52
2018-04-19T01:28:01.883Z,15.50
2018-04-19T01:30:30.154Z,15.30
2018-04-19T01:32:57.609Z,15.23
2018-04-19T01:35:37.657Z,15.68
2018-04-19T01:38:05.892Z,14.18
2018-04-19T01:40:33.397Z,14.90
2018-04-19T01:43:01.646Z,15.93
2018-04-19T01:45:29.125Z,15.35
2018-04-19T01:47:56.621Z,16.62
2018-04-19T01:50:24.074Z,15.95
2018-04-19T01:52:51.600Z,15.25
2018-04-19T01:55:19.060Z,14.77
2018-04-19T01:57:46.570Z,16.30
2018-04-19T02:00:14.084Z,15.48
2018-04-19T02:02:42.351Z,15.38
2018-04-19T02:05:09.812Z,15.18
2018-04-19T02:07:37.310Z,15.90
2018-04-19T02:10:04.789Z,15.05
2018-04-19T02:12:32.284Z,15.25
2018-04-19T02:14:59.745Z,14.73
2018-04-19T02:17:27.213Z,15.38
2018-04-19T02:19:55.475Z,16.17
2018-04-19T02:22:22.936Z,16.17
2018-04-19T02:24:50.432Z,15.02
2018-04-19T02:27:17.905Z,16.80
2018-04-19T02:29:45.432Z,14.25
2018-04-19T02:32:13.671Z,15.65
2018-04-19T02:34:41.159Z,15.30
2018-04-19T02:37:08.635Z,14.93
2018-04-19T02:39:36.860Z,15.98
2018-04-19T02:42:04.361Z,15.70
2018-04-19T02:44:32.593Z,14.18
2018-04-19T02:47:00.117Z,15.38
2018-04-19T02:49:27.592Z,14.35
2018-04-19T02:51:55.072Z,13.70
2018-04-19T02:54:22.538Z,14.65
2018-04-19T02:56:50.030Z,14.80
2018-04-19T02:59:18.253Z,14.80
2018-04-19T03:01:45.745Z,15.00
2018-04-19T03:04:13.245Z,15.13
2018-04-19T03:06:40.741Z,15.38
2018-04-19T03:09:08.212Z,15.90
2018-04-19T03:11:35.713Z,14.87
2018-04-19T03:14:03.933Z,14.70
2018-04-19T03:16:31.427Z,14.43
2018-04-19T03:18:59.684Z,13.62
2018-04-19T03:21:27.170Z,15.02
2018-04-19T03:23:55.452Z,15.48
2018-04-19T03:26:22.921Z,14.63
2018-04-19T03:28:50.409Z,15.85
2018-04-19T03:31:17.895Z,17.23
2018-04-19T03:33:45.387Z,16.50
2018-04-19T03:36:13.645Z,16.37
2018-04-19T03:38:41.919Z,16.70
2018-04-19T03:41:09.392Z,15.13
2018-04-19T03:43:36.909Z,16.08
2018-04-19T03:46:04.381Z,15.98
2018-04-19T03:48:31.850Z,17.20
2018-04-19T03:50:59.345Z,15.10
2018-04-19T03:53:26.829Z,15.93
2018-04-19T03:55:54.317Z,16.75
2018-04-19T03:58:21.776Z,15.98
2018-04-19T04:00:49.293Z,17.80
2018-04-19T04:03:16.760Z,17.35
2018-04-19T04:05:44.225Z,17.35
2018-04-19T04:08:11.725Z,18.48
2018-04-19T04:10:39.252Z,17.98
2018-04-19T04:13:06.845Z,20.45
2018-04-19T04:15:34.311Z,17.98
2018-04-19T04:18:14.508Z,19.25
2018-04-19T04:20:54.053Z,17.70
2018-04-19T04:23:44.293Z,18.60
2018-04-19T04:26:11.793Z,18.37
2018-04-19T04:28:39.280Z,18.35
2018-04-19T04:31:06.834Z,19.83
2018-04-19T04:33:34.273Z,22.40
2018-04-19T04:36:01.769Z,19.95
2018-04-19T04:38:29.259Z,21.08
2018-04-19T04:40:57.529Z,20.80
2018-04-19T04:43:24.993Z,19.90
2018-04-19T04:45:53.249Z,20.20
2018-04-19T04:48:20.715Z,21.08
2018-04-19T04:50:48.961Z,20.20
2018-04-19T04:53:16.481Z,20.48
2018-04-19T04:55:43.940Z,19.65
2018-04-19T04:58:11.425Z,20.52
2018-04-19T05:00:38.920Z,19.33
2018-04-19T05:03:06.412Z,20.05
2018-04-19T05:05:34.662Z,19.90
2018-04-19T05:08:02.186Z,16.70
2018-04-19T05:10:29.712Z,20.60
2018-04-19T05:12:57.174Z,20.45
2018-04-19T05:15:24.681Z,20.62
2018-04-19T05:17:52.180Z,20.15
2018-04-19T05:20:19.688Z,18.90
2018-04-19T05:22:47.156Z,20.05
2018-04-19T05:25:16.132Z,20.25
2018-04-19T05:27:43.625Z,19.05
2018-04-19T05:30:11.102Z,20.20
2018-04-19T05:32:39.375Z,19.42
2018-04-19T05:35:07.609Z,18.35
2018-04-19T05:37:35.116Z,18.00
2018-04-19T05:40:02.700Z,17.50
2018-04-19T05:42:30.216Z,16.00
2018-04-19T05:44:58.481Z,15.40
2018-04-19T05:47:25.956Z,15.60
2018-04-19T05:49:54.224Z,15.70
2018-04-19T05:52:22.474Z,16.27
2018-04-19T05:54:49.980Z,13.70
2018-04-19T05:57:18.232Z,15.10
2018-04-19T05:59:45.739Z,13.70
2018-04-19T06:02:13.206Z,15.73
2018-04-19T06:04:40.672Z,14.43
2018-04-19T06:07:08.189Z,14.17
2018-04-19T06:09:35.650Z,13.97
2018-04-19T06:12:03.912Z,15.30
2018-04-19T06:14:32.174Z,14.73
2018-04-19T06:16:59.673Z,14.23
2018-04-19T06:19:27.150Z,15.10
2018-04-19T06:21:54.693Z,13.80
2018-04-19T06:24:22.186Z,15.03
2018-04-19T06:26:49.691Z,13.60
2018-04-19T06:29:17.924Z,14.67
2018-04-19T06:31:45.444Z,13.77
2018-04-19T06:34:12.950Z,14.13
2018-04-19T06:36:40.448Z,13.40
2018-04-19T06:39:08.708Z,14.00
2018-04-19T06:41:36.218Z,13.93
2018-04-19T06:44:03.712Z,13.67
2018-04-19T06:46:31.219Z,14.33
2018-04-19T06:48:58.756Z,14.17
2018-04-19T06:51:26.266Z,13.50
2018-04-19T06:53:53.755Z,13.30
2018-04-19T06:56:21.233Z,14.27
2018-04-19T06:58:49.504Z,14.10
2018-04-19T07:01:16.976Z,14.63
2018-04-19T07:03:45.229Z,13.13
2018-04-19T07:06:12.705Z,12.97
2018-04-19T07:08:40.200Z,13.53
2018-04-19T07:11:07.671Z,13.40
2018-04-19T07:13:35.173Z,13.50
2018-04-19T07:16:03.405Z,13.97
2018-04-19T07:18:30.909Z,13.70
2018-04-19T07:20:59.140Z,12.83
2018-04-19T07:23:26.628Z,13.70
2018-04-19T07:25:54.292Z,13.90
2018-04-19T07:28:21.752Z,13.07
2018-04-19T07:30:49.249Z,12.57
2018-04-19T07:33:16.736Z,12.57
2018-04-19T07:35:44.225Z,12.50
2018-04-19T07:38:11.725Z,12.37
2018-04-19T07:40:39.216Z,13.70
2018-04-19T07:43:06.736Z,13.30
2018-04-19T07:45:34.997Z,12.40
2018-04-19T07:48:03.229Z,12.80
2018-04-19T07:50:30.769Z,13.83
2018-04-19T07:52:59.254Z,13.53
2018-04-19T07:55:26.774Z,12.80
2018-04-19T07:57:55.020Z,10.90
2018-04-19T08:00:22.518Z,12.70
2018-04-19T08:02:50.799Z,12.30
2018-04-19T08:05:19.122Z,12.70
2018-04-19T08:07:46.572Z,12.83
2018-04-19T08:10:14.060Z,12.77
2018-04-19T08:12:41.560Z,13.27
2018-04-19T08:15:09.037Z,12.30
2018-04-19T08:17:36.531Z,12.00
2018-04-19T08:20:04.024Z,12.37
2018-04-19T08:22:32.296Z,13.00
2018-04-19T08:25:00.519Z,13.00
2018-04-19T08:27:28.030Z,12.47
2018-04-19T08:29:56.288Z,12.80
2018-04-19T08:32:23.774Z,12.53
2018-04-19T08:34:57.282Z,13.30
2018-04-19T08:37:24.772Z,12.90
2018-04-19T08:39:52.294Z,12.77
2018-04-19T08:42:20.549Z,13.10
2018-04-19T08:44:48.812Z,13.60
2018-04-19T08:47:16.273Z,12.53
2018-04-19T08:49:43.776Z,12.40
2018-04-19T08:52:11.293Z,13.10
2018-04-19T08:54:38.794Z,13.07
2018-04-19T08:57:06.274Z,12.10
2018-04-19T08:59:33.769Z,12.03
2018-04-19T09:02:01.252Z,12.73
2018-04-19T09:04:29.529Z,12.13
2018-04-19T09:06:57.788Z,12.37
2018-04-19T09:09:25.279Z,12.57
2018-04-19T09:11:52.782Z,12.37
2018-04-19T09:14:20.307Z,12.57
2018-04-19T09:16:47.808Z,11.90
2018-04-19T09:19:15.280Z,13.03
2018-04-19T09:21:42.789Z,12.53
2018-04-19T09:24:10.301Z,13.07
2018-04-19T09:26:37.803Z,13.23
2018-04-19T09:29:05.274Z,13.40
2018-04-19T09:31:32.761Z,13.60
2018-04-19T09:34:00.273Z,12.20
2018-04-19T09:36:27.788Z,11.97
2018-04-19T09:38:55.269Z,11.80
2018-04-19T09:41:23.534Z,11.83
2018-04-19T09:43:51.765Z,14.13
2018-04-19T09:46:19.261Z,11.77
2018-04-19T09:48:46.731Z,11.50
2018-04-19T09:51:15.013Z,12.37
2018-04-19T09:53:43.252Z,13.73
2018-04-19T09:56:10.725Z,12.40
2018-04-19T09:58:38.237Z,12.00
2018-04-19T10:01:08.332Z,13.20
2018-04-19T10:03:42.244Z,12.83
2018-04-19T10:06:10.472Z,11.33
2018-04-19T10:08:37.966Z,11.67
2018-04-19T10:11:06.196Z,11.00
2018-04-19T10:13:33.693Z,11.33
2018-04-19T10:16:01.943Z,11.07
2018-04-19T10:18:29.422Z,9.63
2018-04-19T10:20:56.903Z,11.10
2018-04-19T10:23:25.163Z,8.90
2018-04-19T10:25:52.665Z,9.40
2018-04-19T10:28:20.160Z,11.07
2018-04-19T10:30:47.681Z,11.60
2018-04-19T10:33:15.152Z,10.77
2018-04-19T10:35:42.619Z,10.00
2018-04-19T10:38:10.102Z,10.00
2018-04-19T10:40:37.577Z,9.10
2018-04-19T10:43:05.832Z,9.67
2018-04-19T10:45:33.349Z,10.70
2018-04-19T10:48:00.844Z,11.30
2018-04-19T10:50:28.313Z,11.43
2018-04-19T10:52:55.794Z,11.03
2018-04-19T10:55:24.045Z,11.20
2018-04-19T10:57:51.629Z,10.43
2018-04-19T11:00:19.861Z,11.50
2018-04-19T11:02:47.377Z,10.37
2018-04-19T11:05:15.602Z,9.90
2018-04-19T11:07:43.101Z,10.47
2018-04-19T11:10:11.443Z,11.50
2018-04-19T11:12:39.620Z,11.03
2018-04-19T11:15:07.116Z,10.80
2018-04-19T11:17:35.373Z,10.77
2018-04-19T11:20:02.892Z,10.67
2018-04-19T11:22:30.443Z,10.60
2018-04-19T11:24:57.852Z,8.87
2018-04-19T11:27:25.333Z,8.10
2018-04-19T11:29:52.824Z,8.13
2018-04-19T11:32:20.280Z,7.93
2018-04-19T11:34:47.756Z,9.37
2018-04-19T11:37:15.256Z,8.53
2018-04-19T11:39:43.541Z,8.20
2018-04-19T11:42:11.793Z,8.50
2018-04-19T11:44:39.321Z,8.80
2018-04-19T11:47:06.796Z,9.37
2018-04-19T11:49:34.294Z,9.53
2018-04-19T11:52:02.572Z,11.97
2018-04-19T11:54:30.833Z,11.67
2018-04-19T11:56:59.080Z,9.50
2018-04-19T11:59:26.582Z,12.67
2018-04-19T12:01:54.836Z,9.90
2018-04-19T12:04:22.342Z,9.70
2018-04-19T12:06:49.844Z,11.00
2018-04-19T12:09:17.332Z,10.43
2018-04-19T12:11:45.569Z,11.47
2018-04-19T12:14:13.071Z,10.53
2018-04-19T12:16:41.297Z,10.13
2018-04-19T12:19:08.810Z,10.10
2018-04-19T12:21:37.053Z,9.17
2018-04-19T12:24:04.561Z,10.00
2018-04-19T12:26:32.053Z,9.87
2018-04-19T12:28:59.560Z,9.83
2018-04-19T12:31:27.800Z,9.40
2018-04-19T12:33:55.294Z,10.27
2018-04-19T12:36:23.513Z,9.90
2018-04-19T12:38:51.026Z,9.13
2018-04-19T12:41:19.276Z,10.50
2018-04-19T12:43:46.738Z,9.30
2018-04-19T12:46:14.229Z,9.20
2018-04-19T12:48:42.466Z,9.63
2018-04-19T12:51:10.010Z,8.40
2018-04-19T12:53:37.501Z,9.97
2018-04-19T12:56:04.987Z,12.03
2018-04-19T12:58:32.452Z,9.43
2018-04-19T13:00:59.954Z,8.37
2018-04-19T13:03:27.417Z,8.13
2018-04-19T13:05:54.949Z,9.03
2018-04-19T13:08:22.432Z,8.77
2018-04-19T13:10:49.930Z,8.73
2018-04-19T13:13:18.157Z,8.20
2018-04-19T13:15:45.689Z,7.40
2018-04-19T13:18:13.192Z,7.73
2018-04-19T13:20:40.653Z,7.23
2018-04-19T13:23:08.164Z,6.97
2018-04-19T13:25:35.621Z,7.10
2018-04-19T13:28:03.122Z,7.40
2018-04-19T13:30:30.606Z,6.70
2018-04-19T13:32:58.896Z,8.30
2018-04-19T13:35:26.389Z,8.00
2018-04-19T13:37:53.911Z,7.43
2018-04-19T13:40:21.412Z,8.10
2018-04-19T13:42:48.923Z,8.00
2018-04-19T13:45:17.144Z,8.77
2018-04-19T13:47:44.655Z,7.93
2018-04-19T13:50:12.904Z,14.80
2018-04-19T13:52:40.382Z,7.93
2018-04-19T13:55:08.668Z,8.10
2018-04-19T13:57:36.915Z,7.47
2018-04-19T14:00:04.401Z,7.40
2018-04-19T14:02:32.648Z,7.20
2018-04-19T14:05:00.144Z,6.80
2018-04-19T14:07:28.394Z,6.03
2018-04-19T14:09:55.870Z,7.40
2018-04-19T14:12:24.104Z,7.23
2018-04-19T14:14:51.593Z,6.53
2018-04-19T14:17:19.081Z,6.53
2018-04-19T14:19:47.353Z,7.70
2018-04-19T14:22:15.590Z,8.30
2018-04-19T14:24:43.095Z,7.07
2018-04-19T14:27:11.331Z,6.83
2018-04-19T14:29:38.805Z,6.30
2018-04-19T14:32:06.284Z,5.90
2018-04-19T14:34:33.773Z,5.77
2018-04-19T14:37:01.248Z,6.27
2018-04-19T14:39:28.719Z,6.20
2018-04-19T14:41:56.213Z,6.67
2018-04-19T14:44:24.502Z,6.83
2018-04-19T14:46:51.982Z,6.57
2018-04-19T14:49:19.461Z,5.67
2018-04-19T14:51:46.983Z,6.03
2018-04-19T14:54:14.554Z,5.30
2018-04-19T14:56:42.063Z,5.20
2018-04-19T14:59:09.536Z,5.37
2018-04-19T15:01:37.818Z,4.80
2018-04-19T15:04:06.048Z,5.40
2018-04-19T15:06:33.531Z,6.03
2018-04-19T15:09:01.043Z,6.07
2018-04-19T15:11:28.504Z,5.53
2018-04-19T15:13:56.001Z,6.70
2018-04-19T15:16:23.494Z,6.60
2018-04-19T15:18:51.754Z,5.87
2018-04-19T15:21:19.218Z,7.57
2018-04-19T15:23:47.492Z,7.70
2018-04-19T15:26:15.757Z,6.67
2018-04-19T15:28:43.233Z,7.40
2018-04-19T15:31:11.495Z,7.23
2018-04-19T15:33:38.980Z,8.00
2018-04-19T15:36:06.473Z,7.60
2018-04-19T15:38:33.960Z,8.70
2018-04-19T15:41:01.472Z,9.17
2018-04-19T15:43:28.998Z,8.53
2018-04-19T15:45:57.252Z,6.83
2018-04-19T15:48:24.738Z,7.37
2018-04-19T15:50:53.025Z,8.60
2018-04-19T15:53:20.488Z,8.37
2018-04-19T15:55:47.996Z,7.30
2018-04-19T15:58:15.490Z,8.60
2018-04-19T16:00:43.745Z,9.43
2018-04-19T16:03:11.247Z,10.10
2018-04-19T16:05:38.716Z,7.40
2018-04-19T16:08:06.240Z,7.17
2018-04-19T16:10:34.484Z,8.30
2018-04-19T16:13:01.983Z,8.23
2018-04-19T16:15:30.242Z,6.40
2018-04-19T16:17:57.756Z,7.70
2018-04-19T16:20:25.241Z,7.10
2018-04-19T16:22:52.770Z,7.57
2018-04-19T16:25:20.221Z,8.20
2018-04-19T16:27:47.721Z,8.17
2018-04-19T16:30:15.283Z,7.63
2018-04-19T16:32:42.761Z,7.67
2018-04-19T16:35:10.243Z,7.23
2018-04-19T16:37:37.741Z,8.80
2018-04-19T16:40:05.222Z,10.57
2018-04-19T16:42:32.731Z,8.73
2018-04-19T16:45:00.193Z,9.93
2018-04-19T16:47:27.705Z,8.70
2018-04-19T16:49:55.209Z,10.20
2018-04-19T16:52:22.697Z,8.47
2018-04-19T16:54:50.215Z,7.50
2018-04-19T16:57:18.465Z,7.87
2018-04-19T16:59:45.977Z,7.27
2018-04-19T17:02:14.257Z,6.57
2018-04-19T17:04:41.766Z,7.90
2018-04-19T17:07:10.041Z,7.10
2018-04-19T17:09:38.281Z,7.40
2018-04-19T17:12:05.746Z,8.20
2018-04-19T17:14:33.266Z,6.80
2018-04-19T17:17:00.729Z,6.23
2018-04-19T17:19:28.218Z,6.53
2018-04-19T17:21:55.733Z,5.90
2018-04-19T17:24:23.172Z,6.90
2018-04-19T17:26:51.432Z,6.47
2018-04-19T17:29:18.918Z,5.90
2018-04-19T17:31:46.410Z,5.80
2018-04-19T17:34:13.893Z,6.23
2018-04-19T17:36:41.426Z,9.10
2018-04-19T17:39:08.932Z,8.90
2018-04-19T17:41:37.189Z,8.03
2018-04-19T17:44:04.672Z,6.17
2018-04-19T17:46:32.938Z,7.03
2018-04-19T17:49:00.430Z,6.50
2018-04-19T17:51:27.905Z,6.20
2018-04-19T17:53:55.397Z,6.47
2018-04-19T17:56:22.892Z,5.73
2018-04-19T17:58:51.124Z,6.50
2018-04-19T18:01:18.599Z,6.20
2018-04-19T18:03:46.119Z,6.20
2018-04-19T18:06:13.629Z,6.10
2018-04-19T18:08:41.096Z,7.13
2018-04-19T18:11:09.372Z,6.73
2018-04-19T18:13:37.667Z,5.70
2018-04-19T18:16:05.908Z,6.30
2018-04-19T18:18:33.402Z,6.40
2018-04-19T18:21:00.877Z,5.97
2018-04-19T18:23:28.393Z,6.23
2018-04-19T18:25:55.849Z,5.30
2018-04-19T18:28:24.144Z,7.00
2018-04-19T18:30:52.431Z,6.50
2018-04-19T18:33:19.945Z,6.20
2018-04-19T18:35:47.430Z,5.90
2018-04-19T18:38:15.658Z,5.70
2018-04-19T18:40:43.184Z,6.47
2018-04-19T18:43:11.418Z,6.20
2018-04-19T18:45:38.914Z,6.10
2018-04-19T18:48:07.154Z,5.80
2018-04-19T18:50:34.645Z,5.60
2018-04-19T18:53:02.884Z,5.67
2018-04-19T18:55:30.377Z,5.30
2018-04-19T18:57:58.650Z,5.10
2018-04-19T19:00:26.924Z,6.70
2018-04-19T19:02:54.392Z,6.33
2018-04-19T19:05:22.650Z,6.40
2018-04-19T19:07:50.925Z,6.50
2018-04-19T19:10:18.412Z,6.30
2018-04-19T19:12:45.889Z,5.80
2018-04-19T19:15:25.255Z,5.70
2018-04-19T19:18:04.768Z,5.93
2018-04-19T19:20:32.259Z,5.63
2018-04-19T19:22:59.738Z,4.90
2018-04-19T19:25:27.309Z,5.07
2018-04-19T19:27:55.608Z,5.53
2018-04-19T19:30:23.080Z,4.83
2018-04-19T19:32:50.589Z,5.03
2018-04-19T19:35:18.136Z,5.27
2018-04-19T19:37:45.630Z,4.80
2018-04-19T19:40:13.864Z,5.20
2018-04-19T19:42:41.381Z,5.70
2018-04-19T19:45:08.865Z,4.50
2018-04-19T19:47:36.351Z,5.00
2018-04-19T19:50:03.861Z,4.97
2018-04-19T19:52:31.323Z,5.40
2018-04-19T19:54:58.878Z,5.30
2018-04-19T19:57:26.320Z,5.20
2018-04-19T19:59:54.564Z,4.63
2018-04-19T20:02:22.092Z,4.70
2018-04-19T20:04:49.615Z,5.23
2018-04-19T20:07:17.840Z,4.90
2018-04-19T20:09:45.353Z,4.10
2018-04-19T20:12:14.410Z,4.40
2018-04-19T20:14:41.865Z,4.67
2018-04-19T20:17:09.402Z,5.23
2018-04-19T20:19:36.889Z,4.93
2018-04-19T20:22:05.885Z,4.87
2018-04-19T20:24:33.382Z,4.73
2018-04-19T20:27:01.682Z,4.67
2018-04-19T20:29:29.153Z,5.67
2018-04-19T20:31:56.683Z,5.50
2018-04-19T20:34:24.167Z,4.93
2018-04-19T20:36:51.636Z,4.70
2018-04-19T20:39:19.118Z,4.50
2018-04-19T20:41:46.612Z,6.10
2018-04-19T20:44:14.106Z,4.50
2018-04-19T20:46:41.623Z,4.63
2018-04-19T20:49:09.866Z,4.33
2018-04-19T20:51:37.379Z,4.37
2018-04-19T20:54:04.880Z,4.10
2018-04-19T20:56:32.381Z,10.70
2018-04-19T20:58:59.890Z,7.27
2018-04-19T21:01:27.385Z,9.37
2018-04-19T21:03:55.633Z,7.50
2018-04-19T21:06:23.109Z,6.10
2018-04-19T21:08:51.357Z,5.00
2018-04-19T21:11:18.829Z,5.20
2018-04-19T21:13:47.089Z,5.40
2018-04-19T21:16:14.561Z,4.10
2018-04-19T21:18:42.049Z,4.90
2018-04-19T21:21:10.303Z,5.40
2018-04-19T21:23:37.788Z,5.53
2018-04-19T21:26:06.043Z,5.17
2018-04-19T21:28:33.560Z,4.07
2018-04-19T21:31:01.041Z,4.80
2018-04-19T21:33:28.521Z,4.50
2018-04-19T21:35:56.000Z,4.17
2018-04-19T21:38:24.260Z,4.63
2018-04-19T21:40:51.729Z,5.37
2018-04-19T21:43:20.001Z,4.83
2018-04-19T21:45:48.282Z,5.30
2018-04-19T21:48:16.520Z,5.10
2018-04-19T21:50:44.005Z,4.83
2018-04-19T21:53:11.465Z,5.57
2018-04-19T21:55:38.949Z,5.07
2018-04-19T21:58:06.409Z,4.73
2018-04-19T22:00:33.896Z,5.07
2018-04-19T22:03:01.366Z,4.33
2018-04-19T22:05:28.898Z,5.40
2018-04-19T22:07:56.392Z,4.50
2018-04-19T22:10:23.881Z,5.33
2018-04-19T22:12:52.132Z,5.20
2018-04-19T22:15:19.623Z,5.30
2018-04-19T22:17:47.869Z,5.23
2018-04-19T22:20:15.364Z,4.60
2018-04-19T22:22:43.653Z,4.73
2018-04-19T22:25:11.126Z,4.40
2018-04-19T22:27:38.612Z,5.27
2018-04-19T22:30:06.089Z,5.40
2018-04-19T22:32:33.601Z,5.60
2018-04-19T22:35:01.092Z,4.93
2018-04-19T22:37:28.590Z,5.30
2018-04-19T22:39:56.850Z,5.13
2018-04-19T22:42:24.349Z,4.40
2018-04-19T22:44:51.817Z,4.87
2018-04-19T22:47:19.312Z,5.12
2018-04-19T22:49:46.765Z,4.87
2018-04-19T22:52:14.253Z,4.20
2018-04-19T22:54:42.475Z,5.37
2018-04-19T22:57:09.956Z,5.90
2018-04-19T22:59:37.444Z,5.10
2018-04-19T23:02:05.697Z,4.90
2018-04-19T23:04:33.174Z,4.70
2018-04-19T23:07:01.437Z,5.72
2018-04-19T23:09:28.950Z,4.70
2018-04-19T23:11:56.416Z,6.22
2018-04-19T23:14:23.908Z,6.10
2018-04-19T23:16:52.160Z,5.37
2018-04-19T23:19:19.652Z,5.15
2018-04-19T23:21:47.885Z,4.70
2018-04-19T23:24:15.380Z,4.75
2018-04-19T23:26:42.884Z,5.35
2018-04-19T23:29:10.409Z,5.57
2018-04-19T23:31:37.866Z,5.97
2018-04-19T23:34:06.151Z,5.53
2018-04-19T23:36:34.380Z,6.00
2018-04-19T23:39:01.857Z,5.55
2018-04-19T23:41:29.348Z,5.70
2018-04-19T23:43:57.590Z,5.60
2018-04-19T23:46:25.084Z,4.78
2018-04-19T23:48:53.322Z,5.10
2018-04-19T23:51:20.810Z,5.62
2018-04-19T23:53:49.043Z,6.00
2018-04-19T23:56:16.540Z,5.60
2018-04-19T23:58:44.921Z,5.15
